Time;durP1;ratioP1;P1;durP2;ratioP2;P2;SDS_P1;SDS_P2;PMS_P1;PMS_P2;Temp;Humidity;BMP_temperature;BMP_pressure;BME280_temperature;BME280_humidity;BME280_pressure;Samples;Min_cycle;Max_cycle;Signal;HPM_P1;HPM_P2
2022/06/04 00:00:36;;;;;;;1.52;1.00;;;;;;;16.75;53.62;100592.78;4921947;29;20023;-73
2022/06/04 00:03:03;;;;;;;1.50;0.75;;;;;;;16.78;53.61;100592.19;4946225;28;20055;-76
2022/06/04 00:05:32;;;;;;;1.77;0.90;;;;;;;16.79;53.40;100593.00;4933736;29;20027;-75
2022/06/04 00:07:59;;;;;;;1.42;1.02;;;;;;;16.76;53.43;100599.94;4952417;28;20053;-75
2022/06/04 00:16:04;;;;;;;1.85;1.17;;;;;;;16.74;53.83;100591.97;4940760;28;20100;-76
2022/06/04 00:18:30;;;;;;;6.32;0.98;;;;;;;16.66;53.69;100591.84;4933508;28;20132;-75
2022/06/04 00:20:56;;;;;;;2.10;1.35;;;;;;;16.62;54.41;100604.59;4953768;28;20037;-76
2022/06/04 00:23:22;;;;;;;2.42;1.05;;;;;;;16.59;54.15;100600.53;4921401;29;20032;-76
2022/06/04 00:25:51;;;;;;;3.10;1.38;;;;;;;16.62;54.27;100610.13;4930779;28;20028;-75
2022/06/04 00:28:19;;;;;;;2.50;1.40;;;;;;;16.62;54.32;100610.13;4955170;28;20032;-75
2022/06/04 00:30:45;;;;;;;3.40;1.08;;;;;;;16.58;54.30;100610.72;4952226;28;20146;-76
2022/06/04 00:33:11;;;;;;;2.97;1.20;;;;;;;16.54;54.55;100609.72;4923880;29;20051;-74
2022/06/04 00:35:37;;;;;;;2.85;1.02;;;;;;;16.50;54.54;100608.69;4950091;28;20031;-75
2022/06/04 00:38:06;;;;;;;2.72;1.20;;;;;;;16.58;54.49;100610.72;4914773;29;20111;-75
2022/06/04 00:40:38;;;;;;;6.20;1.20;;;;;;;16.59;54.03;100611.56;4936987;29;20498;-75
2022/06/04 00:43:03;;;;;;;1.55;1.10;;;;;;;16.54;54.10;100598.69;4953975;28;20019;-75
2022/06/04 00:45:32;;;;;;;2.92;1.00;;;;;;;16.56;54.19;100609.41;4935562;29;20023;-75
2022/06/04 00:47:58;;;;;;;4.15;0.95;;;;;;;16.52;54.68;100611.13;4958999;28;20031;-74
2022/06/04 00:50:24;;;;;;;2.72;1.05;;;;;;;16.46;54.54;100610.41;4938696;29;20047;-75
2022/06/04 00:52:52;;;;;;;1.80;0.80;;;;;;;16.47;54.40;100612.03;4918526;29;20036;-75
2022/06/04 00:55:21;;;;;;;2.67;1.10;;;;;;;16.44;54.50;100598.84;4934332;28;20053;-75
2022/06/04 00:58:13;;;;;;;1.98;1.20;;;;;;;16.49;54.59;100601.50;4933995;29;20061;-77
2022/06/04 01:00:48;;;;;;;4.13;1.20;;;;;;;16.60;54.37;100601.34;4941067;28;20048;-76
2022/06/04 01:03:13;;;;;;;6.40;1.75;;;;;;;16.62;54.03;100605.44;4955752;28;20586;-75
2022/06/04 01:06:05;;;;;;;2.03;1.10;;;;;;;16.61;54.25;100598.28;4939068;28;20055;-74
2022/06/04 01:08:43;;;;;;;1.95;1.02;;;;;;;16.66;53.80;100612.00;4909057;29;20078;-75
2022/06/04 01:11:32;;;;;;;2.72;0.98;;;;;;;16.51;53.72;100604.78;4948844;28;20034;-76
2022/06/04 01:14:25;;;;;;;2.33;1.10;;;;;;;16.53;54.34;100602.53;4940177;28;20420;-75
2022/06/04 01:17:04;;;;;;;3.05;1.25;;;;;;;16.50;54.21;100603.16;4955001;28;20091;-74
2022/06/04 01:20:00;;;;;;;2.70;1.23;;;;;;;16.44;54.22;100598.84;4935283;29;20095;-75
2022/06/04 01:22:45;;;;;;;2.42;1.00;;;;;;;16.38;54.29;100605.53;4936265;29;20030;-75
2022/06/04 01:25:26;;;;;;;3.75;1.00;;;;;;;16.41;54.66;100604.94;4924176;29;20044;-75
2022/06/04 01:27:58;;;;;;;3.25;1.08;;;;;;;16.37;54.59;100590.13;4935223;29;20546;-75
2022/06/04 01:30:23;;;;;;;1.77;1.05;;;;;;;16.41;54.63;100599.41;4933278;29;20036;-75
2022/06/04 01:32:55;;;;;;;8.82;1.27;;;;;;;16.42;55.24;100601.06;4934380;28;20024;-76
2022/06/04 01:35:35;;;;;;;3.92;1.33;;;;;;;16.31;55.88;100602.34;4934280;29;20100;-76
2022/06/04 01:38:14;;;;;;;6.05;1.40;;;;;;;16.15;56.27;100591.56;4923357;29;20024;-77
2022/06/04 01:41:04;;;;;;;4.97;1.58;;;;;;;16.01;57.02;100596.19;4924162;29;20043;-75
2022/06/04 01:43:44;;;;;;;3.83;1.33;;;;;;;15.88;57.65;100598.56;4926770;29;20087;-75
2022/06/04 01:46:25;;;;;;;3.08;1.20;;;;;;;15.87;58.20;100605.22;4945728;28;20031;-76
2022/06/04 01:48:56;;;;;;;2.65;1.27;;;;;;;15.81;58.63;100598.13;4940727;29;20120;-75
2022/06/04 01:51:26;;;;;;;4.53;1.27;;;;;;;15.73;59.30;100608.97;4932158;29;20469;-76
2022/06/04 01:53:57;;;;;;;3.83;1.20;;;;;;;15.65;59.84;100604.94;4929022;29;20038;-76
2022/06/04 01:56:29;;;;;;;3.17;1.23;;;;;;;15.63;60.29;100612.69;4936307;29;20683;-76
2022/06/04 01:59:01;;;;;;;2.55;1.30;;;;;;;15.57;60.49;100616.63;4937038;29;20462;-76
2022/06/04 02:01:32;;;;;;;3.20;1.30;;;;;;;15.59;60.32;100617.13;4937898;29;20043;-77
2022/06/04 02:04:07;;;;;;;5.22;1.40;;;;;;;15.46;61.15;100619.50;4934774;29;20047;-76
2022/06/04 02:09:36;;;;;;;2.33;1.20;;;;;;;15.42;61.45;100634.97;4930295;29;20121;-75
2022/06/04 02:12:04;;;;;;;2.75;1.08;;;;;;;15.33;61.58;100634.81;4925150;29;20024;-76
2022/06/04 02:14:30;;;;;;;3.33;1.17;;;;;;;15.28;61.50;100631.28;4922927;29;20095;-75
2022/06/04 02:17:05;;;;;;;3.22;1.00;;;;;;;15.18;61.38;100622.00;4936604;28;20048;-77
2022/06/04 02:19:30;;;;;;;4.10;1.65;;;;;;;15.10;62.42;100628.16;4934626;29;20525;-76
2022/06/04 02:21:56;;;;;;;3.28;1.20;;;;;;;14.94;62.78;100632.19;4929754;29;20143;-76
2022/06/04 02:24:22;;;;;;;4.60;1.45;;;;;;;14.92;63.44;100639.91;4922127;29;20047;-76
2022/06/04 02:26:47;;;;;;;3.45;1.20;;;;;;;14.81;63.25;100630.94;4914859;29;20039;-76
2022/06/04 02:29:14;;;;;;;4.93;1.50;;;;;;;14.74;63.42;100631.25;4923678;29;20028;-77
2022/06/04 02:31:39;;;;;;;2.88;1.02;;;;;;;14.73;63.56;100635.09;4930997;29;20119;-76
2022/06/04 02:34:42;;;;;;;5.97;1.73;;;;;;;14.64;63.97;100631.34;4931337;29;20063;-77
2022/06/04 02:37:31;;;;;;;6.68;1.55;;;;;;;14.63;63.24;100635.19;4959745;28;20042;-76
2022/06/04 02:40:08;;;;;;;4.35;1.40;;;;;;;14.51;64.10;100626.47;4940578;28;20044;-76
2022/06/04 02:42:42;;;;;;;1.90;1.20;;;;;;;14.43;64.63;100627.91;4933479;29;20106;-77
2022/06/04 02:45:15;;;;;;;;;;;;;;;14.37;64.57;100612.53;4930839;29;20034;-76
2022/06/04 02:47:53;;;;;;;4.13;1.95;;;;;;;14.34;64.60;100608.47;4935785;29;20014;-76
2022/06/04 02:50:26;;;;;;;2.60;1.33;;;;;;;14.27;64.84;100596.94;4931300;28;20071;-76
2022/06/04 02:52:57;;;;;;;4.30;1.63;;;;;;;14.27;65.62;100594.19;4937339;29;20078;-76
2022/06/04 02:55:28;;;;;;;2.13;1.00;;;;;;;14.23;65.66;100585.69;4937536;29;20040;-75
2022/06/04 02:57:59;;;;;;;2.17;1.05;;;;;;;14.17;64.92;100595.09;4936400;29;20027;-77
2022/06/04 03:00:26;;;;;;;5.07;1.65;;;;;;;14.20;65.85;100593.69;4935899;29;20086;-77
2022/06/04 03:02:52;;;;;;;4.65;1.50;;;;;;;14.27;65.03;100591.47;4939242;29;20034;-79
2022/06/04 03:05:27;;;;;;;3.50;1.25;;;;;;;14.25;65.63;100582.66;4935408;29;20034;-77
2022/06/04 03:07:57;;;;;;;5.20;1.13;;;;;;;14.14;65.25;100574.47;4943505;29;20063;-77
2022/06/04 03:10:29;;;;;;;2.80;1.05;;;;;;;14.12;65.28;100571.19;4942665;29;20042;-76
2022/06/04 03:12:55;;;;;;;5.25;2.28;;;;;;;14.05;65.45;100569.91;4937448;29;20034;-78
2022/06/04 03:15:21;;;;;;;2.22;1.20;;;;;;;14.00;65.54;100569.91;4909037;29;20032;-78
2022/06/04 03:17:48;;;;;;;2.45;1.15;;;;;;;13.89;65.84;100555.44;4933232;28;20055;-78
2022/06/04 03:20:17;;;;;;;4.10;1.20;;;;;;;13.81;66.05;100564.25;4945270;28;20023;-76
2022/06/04 03:22:42;;;;;;;1.58;1.00;;;;;;;13.81;65.96;100569.75;4955913;28;20784;-76
2022/06/04 03:25:08;;;;;;;2.30;1.00;;;;;;;13.81;66.04;100570.56;4958099;28;20027;-77
2022/06/04 03:27:34;;;;;;;2.88;1.17;;;;;;;13.81;66.10;100561.50;4956000;28;20074;-77
2022/06/04 03:30:00;;;;;;;3.28;1.00;;;;;;;13.81;66.12;100553.28;4951024;28;20061;-76
2022/06/04 03:32:26;;;;;;;3.13;1.20;;;;;;;13.82;65.84;100565.91;4940185;28;20031;-74
2022/06/04 03:34:51;;;;;;;1.45;0.85;;;;;;;13.76;65.88;100554.94;4952482;28;20520;-75
2022/06/04 03:37:17;;;;;;;3.17;1.30;;;;;;;13.79;66.49;100564.56;4926104;29;20039;-75
2022/06/04 03:39:42;;;;;;;2.33;1.15;;;;;;;13.78;66.41;100568.41;4956101;28;20023;-76
2022/06/04 03:42:08;;;;;;;1.75;1.33;;;;;;;13.78;65.86;100565.66;4942454;29;20073;-76
2022/06/04 03:44:34;;;;;;;3.25;1.40;;;;;;;13.83;65.90;100567.53;4912414;28;20042;-76
2022/06/04 03:46:59;;;;;;;2.55;1.10;;;;;;;13.78;66.27;100566.50;4935441;28;20485;-76
2022/06/04 03:49:25;;;;;;;4.28;1.63;;;;;;;13.82;66.34;100565.91;4925710;28;20363;-76
2022/06/04 03:51:51;;;;;;;5.63;1.17;;;;;;;13.84;65.71;100574.69;4943187;29;20028;-76
2022/06/04 03:54:16;;;;;;;1.33;1.10;;;;;;;13.77;66.26;100562.09;4940349;29;20074;-76
2022/06/04 03:56:42;;;;;;;4.40;1.27;;;;;;;13.86;65.69;100567.00;4909378;28;20038;-75
2022/06/04 03:59:07;;;;;;;3.88;1.10;;;;;;;13.86;65.87;100561.50;4923266;29;20035;-76
2022/06/04 04:01:33;;;;;;;3.72;1.25;;;;;;;13.80;66.00;100552.47;4934376;28;20042;-75
2022/06/04 04:04:00;;;;;;;4.43;1.38;;;;;;;13.88;65.53;100573.03;4931696;29;20050;-76
2022/06/04 04:06:32;;;;;;;4.93;1.70;;;;;;;13.95;65.75;100576.28;4948785;28;20028;-76
2022/06/04 04:08:58;;;;;;;4.13;1.30;;;;;;;14.03;65.10;100572.09;4939547;29;20026;-75
2022/06/04 04:11:26;;;;;;;2.67;1.05;;;;;;;14.01;65.43;100574.31;4956769;28;20035;-75
2022/06/04 04:13:52;;;;;;;3.80;1.10;;;;;;;13.96;65.67;100562.25;4954191;28;20038;-76
2022/06/04 04:16:19;;;;;;;3.80;1.60;;;;;;;13.95;65.93;100571.59;4957607;28;20098;-74
2022/06/04 04:18:45;;;;;;;3.35;1.25;;;;;;;13.85;66.04;100581.84;4937450;29;20047;-74
2022/06/04 04:21:13;;;;;;;4.18;1.65;;;;;;;13.81;66.76;100591.75;4923800;29;20553;-75
2022/06/04 04:23:39;;;;;;;4.20;1.30;;;;;;;13.77;66.58;100581.31;4937277;29;20032;-74
2022/06/04 04:26:07;;;;;;;6.22;1.60;;;;;;;13.72;67.11;100584.09;4939738;29;20584;-74
2022/06/04 04:28:33;;;;;;;3.95;1.70;;;;;;;13.72;66.82;100575.03;4931706;29;20024;-76
2022/06/04 04:30:59;;;;;;;3.80;1.70;;;;;;;13.78;66.33;100588.47;4907259;29;20175;-76
2022/06/04 04:33:25;;;;;;;6.25;1.80;;;;;;;13.84;66.93;100596.69;4909215;29;20043;-77
2022/06/04 04:35:51;;;;;;;6.32;1.80;;;;;;;13.83;66.16;100584.03;4935891;29;20036;-78
2022/06/04 04:38:18;;;;;;;10.35;1.70;;;;;;;13.85;66.43;100587.34;4941267;29;20425;-76
2022/06/04 04:40:44;;;;;;;6.95;2.53;;;;;;;13.85;66.70;100588.16;4920827;29;20059;-77
2022/06/04 04:43:10;;;;;;;6.45;1.73;;;;;;;13.90;67.05;100596.38;4921703;29;20036;-77
2022/06/04 04:45:36;;;;;;;2.47;1.30;;;;;;;13.89;66.76;100569.97;4918727;29;20043;-77
2022/06/04 04:48:01;;;;;;;9.13;1.60;;;;;;;13.85;67.10;100565.34;4923682;29;20026;-76
2022/06/04 04:50:31;;;;;;;10.40;1.65;;;;;;;13.84;67.35;100563.69;4937363;29;20063;-77
2022/06/04 04:52:57;;;;;;;6.80;1.90;;;;;;;13.81;67.39;100575.25;4937362;29;20035;-77
2022/06/04 04:55:24;;;;;;;10.60;1.80;;;;;;;13.75;67.49;100578.03;4920344;29;20071;-76
2022/06/04 04:57:49;;;;;;;2.60;1.52;;;;;;;13.74;67.30;100576.41;4937318;29;20039;-76
2022/06/04 05:00:16;;;;;;;2.80;1.40;;;;;;;13.77;67.34;100575.84;4910226;29;20028;-76
2022/06/04 05:02:41;;;;;;;4.05;2.08;;;;;;;13.82;67.26;100582.41;4936879;29;20176;-77
2022/06/04 05:05:08;;;;;;;3.80;1.52;;;;;;;13.76;67.40;100585.16;4911524;29;20055;-76
2022/06/04 05:07:33;;;;;;;2.72;1.40;;;;;;;13.82;67.27;100607.97;4923110;29;20032;-77
2022/06/04 05:09:59;;;;;;;4.53;1.70;;;;;;;13.88;67.43;100608.75;4935947;29;20091;-76
2022/06/04 05:12:24;;;;;;;4.93;1.65;;;;;;;13.82;67.64;100620.88;4912464;29;20024;-76
2022/06/04 05:14:50;;;;;;;3.85;1.70;;;;;;;13.78;67.80;100606.88;4918300;29;20064;-76
2022/06/04 05:17:16;;;;;;;3.78;1.77;;;;;;;13.83;67.53;100611.50;4916508;29;20047;-75
2022/06/04 05:19:41;;;;;;;3.95;1.17;;;;;;;13.87;67.89;100612.59;4948611;29;20086;-74
2022/06/04 05:22:07;;;;;;;8.05;2.00;;;;;;;13.96;67.04;100616.41;4923925;29;20082;-75
2022/06/04 05:24:35;;;;;;;7.60;1.70;;;;;;;14.04;66.60;100626.78;4940567;29;20050;-77
2022/06/04 05:27:04;;;;;;;6.18;1.73;;;;;;;14.01;67.02;100624.63;4935486;29;20112;-75
2022/06/04 05:29:31;;;;;;;4.78;1.60;;;;;;;14.01;66.34;100612.81;4937449;29;20019;-76
2022/06/04 05:31:58;;;;;;;12.20;2.50;;;;;;;14.06;67.13;100621.84;4923856;29;20020;-77
2022/06/04 05:34:24;;;;;;;5.97;1.95;;;;;;;14.00;67.09;100614.72;4914460;29;20391;-75
2022/06/04 05:36:53;;;;;;;5.75;1.50;;;;;;;13.98;66.67;100614.19;4926226;29;20451;-77
2022/06/04 05:39:19;;;;;;;5.65;1.92;;;;;;;13.94;66.74;100624.09;4929917;29;20060;-75
2022/06/04 05:41:46;;;;;;;4.45;1.25;;;;;;;13.90;67.05;100623.03;4934785;29;20059;-76
2022/06/04 05:44:11;;;;;;;3.08;1.75;;;;;;;13.94;67.39;100613.94;4936822;29;20098;-77
2022/06/04 05:46:41;;;;;;;4.60;2.00;;;;;;;13.99;67.24;100615.84;4924585;29;20064;-77
2022/06/04 05:49:07;;;;;;;2.97;1.38;;;;;;;14.14;66.44;100628.66;4932804;28;20023;-77
2022/06/04 05:51:32;;;;;;;3.00;1.50;;;;;;;14.19;66.06;100622.31;4938977;29;20026;-75
2022/06/04 05:54:00;;;;;;;2.78;1.63;;;;;;;14.26;65.98;100626.38;4930131;29;20078;-76
2022/06/04 05:56:31;;;;;;;6.60;2.00;;;;;;;14.35;65.95;100625.78;4933547;29;20030;-76
2022/06/04 05:59:03;;;;;;;3.88;1.40;;;;;;;14.41;66.13;100630.97;4927799;29;20020;-78
2022/06/04 06:01:31;;;;;;;3.85;1.90;;;;;;;14.34;65.76;100638.72;4933634;29;20090;-77
2022/06/04 06:03:57;;;;;;;4.82;2.20;;;;;;;14.25;66.27;100634.91;4928451;29;20022;-77
2022/06/04 06:06:27;;;;;;;4.72;1.65;;;;;;;14.20;66.34;100649.53;4910234;29;20034;-74
2022/06/04 06:08:54;;;;;;;6.22;1.80;;;;;;;14.17;66.23;100646.53;4933540;29;20024;-76
2022/06/04 06:11:20;;;;;;;3.65;1.60;;;;;;;14.22;65.91;100651.97;4923851;29;20401;-78
2022/06/04 06:13:48;;;;;;;2.65;1.60;;;;;;;14.17;66.95;100644.59;4913865;29;20023;-77
2022/06/04 06:16:20;;;;;;;4.57;1.85;;;;;;;14.09;66.94;100637.78;4931396;29;20024;-76
2022/06/04 06:18:45;;;;;;;8.55;2.33;;;;;;;14.05;67.00;100647.69;4926755;28;20044;-76
2022/06/04 06:21:14;;;;;;;3.67;1.60;;;;;;;14.06;66.74;100645.75;4928237;29;20878;-77
2022/06/04 06:23:40;;;;;;;6.97;2.38;;;;;;;14.05;66.45;100642.19;4921153;29;20026;-75
2022/06/04 06:26:07;;;;;;;8.32;2.70;;;;;;;14.01;66.66;100641.13;4922616;29;20024;-77
2022/06/04 06:28:35;;;;;;;8.00;2.00;;;;;;;14.00;66.47;100644.97;4930028;29;20071;-74
2022/06/04 06:31:01;;;;;;;3.08;1.60;;;;;;;14.00;67.00;100628.47;4927396;29;20055;-77
2022/06/04 06:33:33;;;;;;;4.25;2.20;;;;;;;14.08;66.58;100633.38;4936932;29;20031;-77
2022/06/04 06:36:02;;;;;;;7.70;2.75;;;;;;;14.22;66.35;100618.97;4926892;29;20036;-76
2022/06/04 06:38:28;;;;;;;6.25;2.40;;;;;;;14.41;66.55;100619.97;4932109;29;20055;-74
2022/06/04 06:40:55;;;;;;;5.68;1.98;;;;;;;14.66;65.16;100618.13;4935998;29;20024;-75
2022/06/04 06:43:22;;;;;;;5.00;1.75;;;;;;;14.79;64.52;100622.97;4932946;29;20036;-75
2022/06/04 06:45:48;;;;;;;4.10;2.17;;;;;;;14.92;64.76;100626.13;4922367;29;20486;-75
2022/06/04 06:48:13;;;;;;;4.20;1.80;;;;;;;15.07;63.99;100634.25;4931481;29;20039;-76
2022/06/04 06:50:39;;;;;;;3.83;1.55;;;;;;;15.24;63.91;100638.50;4934308;29;20020;-76
2022/06/04 06:53:05;;;;;;;6.32;1.90;;;;;;;15.34;63.21;100638.38;4930021;29;20028;-76
2022/06/04 06:55:30;;;;;;;7.60;2.13;;;;;;;15.40;62.65;100634.44;4932127;29;20024;-76
2022/06/04 06:57:56;;;;;;;5.07;2.42;;;;;;;15.47;62.53;100636.84;4931530;29;20047;-76
2022/06/04 07:00:22;;;;;;;6.63;2.20;;;;;;;15.69;62.16;100641.81;4924950;29;20048;-76
2022/06/04 07:02:47;;;;;;;6.13;2.53;;;;;;;15.90;61.30;100638.81;4933191;29;20035;-76
2022/06/04 07:05:13;;;;;;;3.85;1.80;;;;;;;16.04;60.75;100639.72;4936878;29;20032;-77
2022/06/04 07:07:49;;;;;;;8.55;1.92;;;;;;;16.20;60.41;100632.84;4927512;29;20055;-76
2022/06/04 07:10:23;;;;;;;7.53;1.98;;;;;;;16.40;59.90;100633.69;4912735;29;20040;-75
2022/06/04 07:12:57;;;;;;;7.50;1.90;;;;;;;16.37;59.46;100637.84;4918119;29;20066;-77
2022/06/04 07:27:03;;;;;;;4.07;1.55;;;;;;;16.13;59.26;100629.66;4674038;30;20036;-76
2022/06/04 07:36:45;;;;;;;4.50;1.58;;;;;;;15.79;60.10;100649.19;4817402;29;20039;-78
2022/06/04 07:56:50;;;;;;;;;;;;;;;;;;;;;
2022/06/04 08:00:06;;;;;;;;;;;;;;;;;;;;;
2022/06/04 08:07:05;;;;;;;;;;;;;;;;;;;;;
2022/06/04 08:09:48;;;;;;;;;;;;;;;;;;;;;
2022/06/04 08:58:44;;;;;;;;;;;;;;;;;;;;;
2022/06/04 09:02:06;;;;;;;5.60;1.50;;;;;;;17.71;53.61;100692.69;4697651;30;20521;-75
2022/06/04 09:33:56;;;;;;;7.55;2.20;;;;;;;20.83;45.20;100714.53;5007166;23;20504;-76
2022/06/04 09:36:32;;;;;;;5.82;1.77;;;;;;;20.43;46.11;100728.53;4916127;29;20040;-76
2022/06/04 09:39:04;;;;;;;6.93;2.10;;;;;;;20.14;46.70;100735.53;4903517;29;20028;-74
2022/06/04 09:41:33;;;;;;;3.55;1.70;;;;;;;20.26;47.66;100735.72;4911123;29;20031;-74
2022/06/04 09:44:26;;;;;;;7.25;2.28;;;;;;;20.06;47.47;100734.34;4900992;29;20031;-75
2022/06/04 09:47:06;;;;;;;7.45;2.00;;;;;;;19.80;47.92;100739.81;4902158;29;20104;-76
2022/06/04 09:49:50;;;;;;;6.13;2.30;;;;;;;19.94;48.16;100743.31;4918977;29;20035;-74
2022/06/04 09:52:34;;;;;;;9.25;2.22;;;;;;;20.27;47.29;100747.63;4895356;29;20028;-79
2022/06/04 09:55:08;;;;;;;17.73;2.95;;;;;;;20.66;46.38;100759.75;4895897;29;20100;-76
2022/06/04 09:57:37;;;;;;;;;;;;;;;21.30;45.16;100755.50;4904468;29;20040;-77
2022/06/04 10:00:24;;;;;;;5.75;1.77;;;;;;;22.01;44.40;100752.13;4899528;29;20274;-77
2022/06/04 10:02:59;;;;;;;5.07;1.88;;;;;;;22.61;42.35;100740.97;4901421;29;20024;-76
2022/06/04 10:05:28;;;;;;;7.03;2.15;;;;;;;23.46;40.84;100741.63;4887710;29;20467;-75
2022/06/04 10:07:55;;;;;;;7.28;2.10;;;;;;;23.31;40.81;100749.50;4917783;29;20080;-78
2022/06/04 10:10:38;;;;;;;5.28;2.10;;;;;;;22.94;41.17;100754.09;4888056;29;20024;-76
2022/06/04 10:16:23;;;;;;;7.72;2.28;;;;;;;24.04;38.70;100744.38;4914233;29;20046;-78
2022/06/04 10:18:56;;;;;;;5.80;2.17;;;;;;;24.84;37.77;100733.63;4902257;29;20031;-75
2022/06/04 10:21:39;;;;;;;6.15;2.28;;;;;;;25.25;36.84;100737.16;4897877;29;20052;-76
2022/06/04 10:24:18;;;;;;;8.57;2.40;;;;;;;24.22;38.24;100726.22;4903235;29;20906;-77
2022/06/04 10:26:58;;;;;;;7.53;2.00;;;;;;;23.57;39.56;100712.13;4902495;29;20020;-75
2022/06/04 10:30:01;;;;;;;6.95;2.05;;;;;;;23.37;39.86;100726.97;4927094;29;20020;-76
2022/06/04 10:32:45;;;;;;;5.45;2.08;;;;;;;23.88;38.12;100725.53;4918502;29;20227;-76
2022/06/04 10:35:22;;;;;;;5.25;2.17;;;;;;;24.54;37.56;100711.56;4924615;29;20620;-75
2022/06/04 10:38:07;;;;;;;7.97;2.10;;;;;;;26.73;34.70;100715.47;4913368;29;20403;-74
2022/06/04 10:40:39;;;;;;;;;;;;;;;29.53;29.66;100729.28;4915756;29;20043;-76
2022/06/04 10:43:10;;;;;;;6.13;2.08;;;;;;;30.18;28.31;100739.06;4917259;29;20001;-76
2022/06/04 10:46:01;;;;;;;4.63;1.60;;;;;;;32.48;26.57;100723.75;4908657;29;20028;-76
2022/06/04 10:49:00;;;;;;;6.78;1.88;;;;;;;36.36;21.57;100722.56;4892184;29;20024;-78
2022/06/04 10:51:54;;;;;;;5.97;1.75;;;;;;;38.63;18.70;100722.72;4919783;29;20024;-77
2022/06/04 10:54:43;;;;;;;4.35;1.38;;;;;;;39.71;17.12;100711.53;4890207;29;20027;-76
2022/06/04 10:57:32;;;;;;;2.92;1.40;;;;;;;41.61;16.04;100721.94;4918967;29;20028;-76
2022/06/04 11:00:11;;;;;;;4.80;1.50;;;;;;;41.89;15.33;100727.72;4921309;29;20044;-75
2022/06/04 11:02:55;;;;;;;8.25;1.70;;;;;;;41.44;15.45;100712.78;4903778;29;20090;-73
2022/06/04 11:05:33;;;;;;;3.70;1.50;;;;;;;40.05;16.21;100721.41;4912662;29;20094;-75
2022/06/04 11:08:13;;;;;;;4.97;1.50;;;;;;;37.12;18.60;100727.44;4913265;29;20037;-77
2022/06/04 11:10:45;;;;;;;5.05;1.60;;;;;;;34.68;21.17;100716.31;4913657;29;20034;-76
2022/06/04 11:13:44;;;;;;;5.85;1.52;;;;;;;34.58;21.02;100707.53;4916852;29;20131;-77
2022/06/04 11:16:15;;;;;;;7.55;2.47;;;;;;;36.86;19.10;100705.25;4882528;29;20055;-75
2022/06/04 11:18:56;;;;;;;4.53;1.90;;;;;;;37.85;17.60;100713.06;4907344;29;20032;-76
2022/06/04 11:21:53;;;;;;;4.18;1.67;;;;;;;38.18;17.33;100724.41;4909049;29;20462;-74
2022/06/04 11:24:19;;;;;;;3.38;1.30;;;;;;;37.51;18.48;100725.72;4925401;29;20047;-75
2022/06/04 11:26:55;;;;;;;5.15;1.30;;;;;;;38.19;17.87;100731.72;4913589;29;20028;-75
2022/06/04 11:29:21;;;;;;;9.23;1.60;;;;;;;37.84;17.45;100742.84;4922822;29;20024;-77
2022/06/04 11:32:11;;;;;;;10.13;1.83;;;;;;;34.55;20.02;100731.09;4908348;29;20127;-77
2022/06/04 11:35:24;;;;;;;5.05;1.60;;;;;;;32.15;22.77;100731.50;4918909;29;20110;-76
2022/06/04 11:37:58;;;;;;;9.13;1.90;;;;;;;32.10;23.18;100732.69;4909393;29;20051;-76
2022/06/04 11:40:58;;;;;;;4.63;1.50;;;;;;;31.33;24.06;100713.31;4902994;29;20031;-77
2022/06/04 11:43:55;;;;;;;5.65;1.40;;;;;;;29.51;26.54;100714.78;4926192;29;20048;-76
2022/06/04 11:46:43;;;;;;;4.05;1.60;;;;;;;28.68;27.32;100697.00;4892888;29;20024;-76
2022/06/04 11:49:30;;;;;;;7.07;2.08;;;;;;;27.97;28.69;100704.06;4906660;29;20056;-75
2022/06/04 11:52:22;;;;;;;4.88;1.92;;;;;;;27.91;29.00;100682.28;4922609;29;20402;-76
2022/06/04 11:55:14;;;;;;;6.88;1.52;;;;;;;27.83;29.53;100698.22;4903853;29;20035;-76
2022/06/04 11:57:46;;;;;;;5.32;1.88;;;;;;;28.04;29.46;100692.94;4926544;29;20047;-76
2022/06/04 12:00:16;;;;;;;5.63;1.77;;;;;;;30.32;27.24;100689.59;4906119;29;20023;-76
2022/06/04 12:03:11;;;;;;;3.65;1.30;;;;;;;35.51;21.96;100703.78;4911654;29;20028;-76
2022/06/04 12:05:39;;;;;;;7.20;1.80;;;;;;;41.72;16.15;100722.22;4868871;29;20049;-77
2022/06/04 12:08:09;;;;;;;10.27;1.73;;;;;;;42.79;14.34;100730.19;4920665;29;20499;-76
2022/06/04 12:10:54;;;;;;;7.03;1.95;;;;;;;40.39;15.38;100728.34;4903509;29;20042;-75
2022/06/04 12:13:48;;;;;;;6.00;1.83;;;;;;;37.35;17.98;100707.38;4917220;29;20033;-75
2022/06/04 12:16:40;;;;;;;3.72;1.40;;;;;;;36.22;19.61;100723.66;4895325;29;20040;-76
2022/06/04 12:25:10;;;;;;;5.20;1.33;;;;;;;43.96;13.72;100711.66;4921067;29;20416;-76
2022/06/04 12:27:38;;;;;;;3.72;1.50;;;;;;;45.77;12.11;100714.63;4914882;29;20032;-76
2022/06/04 12:30:17;;;;;;;4.15;1.42;;;;;;;47.78;11.49;100718.13;4914389;29;20112;-76
2022/06/04 12:32:44;;;;;;;3.53;1.27;;;;;;;47.37;10.43;100701.91;4918745;29;20048;-75
2022/06/04 12:35:11;;;;;;;2.50;1.27;;;;;;;45.18;11.84;100696.22;4894806;29;20028;-76
2022/06/04 12:37:42;;;;;;;3.83;1.70;;;;;;;45.98;11.66;100695.97;4920528;29;20104;-75
2022/06/04 12:40:22;;;;;;;2.80;1.20;;;;;;;47.79;10.97;100690.75;4909779;29;20027;-75
2022/06/04 12:43:08;;;;;;;9.65;1.63;;;;;;;45.22;12.05;100693.94;4906613;29;20035;-76
2022/06/04 12:45:36;;;;;;;4.72;1.65;;;;;;;46.44;10.97;100676.19;4916000;29;20055;-76
2022/06/04 12:48:37;;;;;;;4.30;1.60;;;;;;;45.51;11.44;100688.59;4921393;29;20103;-76
2022/06/04 12:51:10;;;;;;;4.43;1.40;;;;;;;45.54;11.29;100688.34;4924109;29;20031;-76
2022/06/04 12:53:55;;;;;;;2.53;1.20;;;;;;;43.68;12.23;100675.22;4919466;29;20036;-75
2022/06/04 12:56:34;;;;;;;3.65;1.58;;;;;;;42.83;13.67;100681.94;4919180;29;20471;-76
2022/06/04 12:59:02;;;;;;;8.48;1.83;;;;;;;43.66;12.41;100677.78;4919899;29;20032;-75
2022/06/04 13:01:30;;;;;;;3.75;1.38;;;;;;;42.40;13.44;100695.47;4917987;29;20074;-76
2022/06/04 13:04:20;;;;;;;4.45;1.33;;;;;;;43.47;12.75;100687.88;4914533;29;20124;-75
2022/06/04 13:06:57;;;;;;;6.63;1.27;;;;;;;45.00;12.23;100682.06;4918598;29;20071;-75
2022/06/04 13:09:42;;;;;;;6.15;1.45;;;;;;;44.77;11.77;100687.47;4904782;29;20060;-77
2022/06/04 13:12:13;;;;;;;4.82;1.35;;;;;;;42.07;13.47;100687.50;4908298;29;20039;-77
2022/06/04 13:14:50;;;;;;;6.93;1.73;;;;;;;42.24;13.92;100676.50;4917839;29;20123;-76
2022/06/04 13:17:33;;;;;;;4.07;1.42;;;;;;;44.90;11.97;100684.25;4901829;29;20032;-77
2022/06/04 13:20:11;;;;;;;3.85;1.23;;;;;;;47.50;10.71;100686.94;4920695;29;20020;-74
2022/06/04 13:23:05;;;;;;;4.50;1.27;;;;;;;49.39;9.53;100678.63;4901511;29;20032;-76
2022/06/04 13:26:18;;;;;;;4.28;1.50;;;;;;;50.13;8.91;100675.34;4896556;29;20073;-76
2022/06/04 13:28:46;;;;;;;4.57;1.35;;;;;;;49.78;8.65;100677.69;4898054;29;20043;-76
2022/06/04 13:31:24;;;;;;;4.38;1.08;;;;;;;49.37;8.92;100675.47;4924525;29;20036;-76
2022/06/04 13:33:53;;;;;;;3.30;1.40;;;;;;;46.41;10.48;100668.56;4921933;29;20539;-75
2022/06/04 13:36:23;;;;;;;3.42;1.60;;;;;;;44.93;11.61;100666.72;4919242;29;20124;-77
2022/06/04 13:38:49;;;;;;;3.17;1.55;;;;;;;46.33;10.85;100663.25;4918288;29;20039;-75
2022/06/04 13:41:18;;;;;;;7.47;1.70;;;;;;;47.53;10.04;100661.94;4905042;29;20032;-78
2022/06/04 13:43:46;;;;;;;4.50;1.42;;;;;;;46.64;10.50;100653.03;4925972;29;20061;-76
2022/06/04 13:46:24;;;;;;;4.32;1.00;;;;;;;45.70;10.99;100654.41;4926914;29;20036;-78
2022/06/04 13:48:57;;;;;;;3.85;1.58;;;;;;;44.31;12.29;100644.75;4905982;29;20028;-75
2022/06/04 13:51:25;;;;;;;2.92;1.30;;;;;;;44.56;12.09;100644.13;4917277;29;20039;-74
2022/06/04 13:53:55;;;;;;;5.13;1.67;;;;;;;45.44;11.84;100647.28;4906730;29;20087;-74
2022/06/04 13:56:28;;;;;;;4.53;1.50;;;;;;;46.89;11.02;100649.75;4886076;29;20391;-74
2022/06/04 13:58:54;;;;;;;6.10;1.30;;;;;;;47.84;9.88;100649.44;4894975;29;20075;-76
2022/06/04 14:01:31;;;;;;;3.17;1.27;;;;;;;48.63;9.63;100657.44;4888073;29;20119;-77
2022/06/04 14:06:43;;;;;;;3.25;1.20;;;;;;;49.29;9.43;100645.44;4903020;29;20047;-76
2022/06/04 14:09:18;;;;;;;3.58;1.38;;;;;;;48.95;9.34;100654.19;4910060;29;20494;-75
2022/06/04 14:11:46;;;;;;;8.20;1.80;;;;;;;49.30;9.08;100646.97;4917046;29;20459;-75
2022/06/04 14:14:28;;;;;;;3.72;1.40;;;;;;;49.36;9.27;100641.97;4901084;29;20032;-75
2022/06/04 14:17:06;;;;;;;2.97;1.10;;;;;;;49.49;9.11;100631.84;4930391;29;20111;-75